Time;durP1;ratioP1;P1;durP2;ratioP2;P2;SDS_P1;SDS_P2;PMS_P1;PMS_P2;Temp;Humidity;BMP_temperature;BMP_pressure;BME280_temperature;BME280_humidity;BME280_pressure;Samples;Min_cycle;Max_cycle;Signal;HPM_P1;HPM_P2
2023/01/06 00:00:43;;;;;;;18.58;9.00;;;9.00;99.90;;;;;;5033512;28;20423;-61
2023/01/06 00:03:10;;;;;;;21.65;8.70;;;9.00;99.90;;;;;;5030413;28;20904;-62
2023/01/06 00:05:36;;;;;;;24.35;8.55;;;9.00;99.90;;;;;;5030619;28;20415;-61
2023/01/06 00:08:03;;;;;;;20.27;9.02;;;8.90;99.90;;;;;;5030590;28;20419;-62
2023/01/06 00:10:30;;;;;;;20.10;9.50;;;8.90;99.90;;;;;;5030828;28;20427;-62
2023/01/06 00:12:57;;;;;;;17.50;8.60;;;8.90;99.90;;;;;;5030596;28;20418;-64
2023/01/06 00:15:25;;;;;;;19.67;9.07;;;8.90;99.90;;;;;;5032182;28;20438;-63
2023/01/06 00:17:52;;;;;;;18.47;9.27;;;8.90;99.90;;;;;;5032263;28;20411;-63
2023/01/06 00:20:19;;;;;;;23.77;8.88;;;8.90;99.90;;;;;;5032935;28;20433;-63
2023/01/06 00:22:45;;;;;;;19.30;9.45;;;8.90;99.90;;;;;;5032635;28;20423;-62
2023/01/06 00:25:12;;;;;;;18.85;9.15;;;8.90;99.90;;;;;;5033089;28;20419;-60
2023/01/06 00:27:39;;;;;;;21.77;9.00;;;8.90;99.90;;;;;;5036941;28;20421;-61
2023/01/06 00:30:08;;;;;;;22.20;9.60;;;8.90;99.90;;;;;;5037670;28;20426;-62
2023/01/06 00:32:36;;;;;;;21.55;9.38;;;8.90;99.90;;;;;;5037031;28;20434;-61
2023/01/06 00:35:03;;;;;;;23.07;9.53;;;8.90;99.90;;;;;;5037066;28;20431;-61
2023/01/06 00:37:30;;;;;;;22.35;9.80;;;8.90;99.90;;;;;;5037188;28;20490;-60
2023/01/06 00:39:57;;;;;;;19.83;9.30;;;8.90;99.90;;;;;;5036392;28;20418;-61
2023/01/06 00:42:24;;;;;;;19.42;9.05;;;8.90;99.90;;;;;;5036657;28;20418;-60
2023/01/06 00:44:51;;;;;;;19.00;9.67;;;8.90;99.90;;;;;;5036770;28;20422;-60
2023/01/06 00:47:19;;;;;;;17.65;9.27;;;8.80;99.90;;;;;;5036140;28;20414;-61
2023/01/06 00:49:47;;;;;;;22.55;9.93;;;8.90;99.90;;;;;;5035879;28;20415;-61
2023/01/06 00:52:14;;;;;;;20.15;9.50;;;8.80;99.90;;;;;;5036247;28;20415;-62
2023/01/06 00:54:41;;;;;;;24.30;9.80;;;8.90;99.90;;;;;;5036682;28;20497;-61
2023/01/06 00:57:08;;;;;;;18.92;9.52;;;8.80;99.90;;;;;;5036617;28;20430;-62
2023/01/06 00:59:35;;;;;;;22.27;9.65;;;8.90;99.90;;;;;;5036648;28;20417;-61
2023/01/06 01:02:02;;;;;;;20.63;9.80;;;8.90;99.90;;;;;;5035653;28;20507;-60
2023/01/06 01:04:29;;;;;;;18.17;8.95;;;8.90;99.90;;;;;;5035499;28;20410;-60
2023/01/06 01:06:58;;;;;;;21.30;9.40;;;8.90;99.90;;;;;;5035252;28;20413;-61
2023/01/06 01:09:27;;;;;;;18.73;9.10;;;8.90;99.90;;;;;;5036671;28;20751;-60
2023/01/06 01:12:10;;;;;;;17.88;9.25;;;8.90;99.90;;;;;;5035762;28;20508;-61
2023/01/06 01:14:38;;;;;;;18.17;9.27;;;8.90;99.90;;;;;;5035285;28;20423;-61
2023/01/06 01:17:05;;;;;;;16.98;8.30;;;8.90;99.90;;;;;;5035416;28;20481;-62
2023/01/06 01:19:32;;;;;;;17.83;9.10;;;9.00;99.90;;;;;;5035275;28;20768;-61
2023/01/06 01:22:00;;;;;;;18.63;9.40;;;9.00;99.90;;;;;;5035298;28;20803;-61
2023/01/06 01:24:27;;;;;;;17.20;9.38;;;9.00;99.90;;;;;;5035297;28;20434;-62
2023/01/06 01:26:54;;;;;;;16.58;9.05;;;9.00;99.90;;;;;;5034902;28;20957;-61
2023/01/06 01:29:21;;;;;;;17.30;9.13;;;9.00;99.90;;;;;;5034743;28;20422;-60
2023/01/06 01:31:48;;;;;;;18.50;8.80;;;9.00;99.90;;;;;;5035145;28;20415;-62
2023/01/06 01:34:16;;;;;;;13.50;7.60;;;9.00;99.90;;;;;;5034651;28;20912;-61
2023/01/06 01:36:45;;;;;;;15.38;8.50;;;9.10;99.90;;;;;;5034863;28;20434;-60
2023/01/06 01:39:16;;;;;;;16.38;8.63;;;9.00;99.90;;;;;;5034419;28;20439;-61
2023/01/06 01:41:43;;;;;;;13.85;8.55;;;9.10;99.90;;;;;;5034951;28;20787;-61
2023/01/06 01:44:47;;;;;;;17.17;7.90;;;9.00;99.90;;;;;;5034680;28;20437;-62
2023/01/06 01:47:16;;;;;;;15.15;7.70;;;9.10;99.90;;;;;;5035071;28;20418;-61
2023/01/06 01:49:45;;;;;;;14.40;7.63;;;9.10;99.90;;;;;;5034792;28;20423;-60
2023/01/06 01:52:13;;;;;;;14.10;7.70;;;9.10;99.90;;;;;;5034705;28;20419;-62
2023/01/06 01:54:43;;;;;;;12.63;7.63;;;9.10;99.90;;;;;;5034590;28;20427;-61
2023/01/06 01:57:14;;;;;;;13.30;7.68;;;9.10;99.90;;;;;;5034252;28;20999;-61
2023/01/06 01:59:42;;;;;;;13.50;6.90;;;9.10;99.90;;;;;;5034065;28;20936;-61
2023/01/06 02:02:09;;;;;;;11.70;6.70;;;9.10;99.90;;;;;;5034262;28;20425;-62
2023/01/06 02:04:39;;;;;;;10.43;7.15;;;9.00;99.90;;;;;;5034112;28;20414;-61
2023/01/06 02:07:07;;;;;;;10.40;6.65;;;9.00;99.90;;;;;;5034155;28;20455;-61
2023/01/06 02:09:38;;;;;;;9.48;6.60;;;9.00;99.90;;;;;;5034197;28;20419;-62
2023/01/06 02:12:07;;;;;;;10.02;6.25;;;9.00;99.90;;;;;;5034115;28;20426;-61
2023/01/06 02:14:34;;;;;;;11.68;6.57;;;9.00;99.90;;;;;;5033816;28;20419;-60
2023/01/06 02:17:15;;;;;;;11.63;7.00;;;9.00;99.90;;;;;;5034255;28;20803;-61
2023/01/06 02:20:08;;;;;;;10.13;6.80;;;9.00;99.90;;;;;;5033984;28;20421;-60
2023/01/06 02:22:55;;;;;;;11.27;6.88;;;9.00;99.90;;;;;;5034100;28;20426;-60
2023/01/06 02:26:09;;;;;;;11.87;6.70;;;9.00;99.90;;;;;;5033835;28;20425;-61
2023/01/06 02:29:01;;;;;;;12.95;6.70;;;9.10;99.90;;;;;;4992410;28;20927;-60
2023/01/06 02:31:44;;;;;;;11.65;6.13;;;9.10;99.90;;;;;;5033931;28;20429;-60
2023/01/06 02:34:21;;;;;;;11.43;6.75;;;9.10;99.90;;;;;;5033954;28;20541;-60
2023/01/06 02:36:56;;;;;;;9.80;6.10;;;9.10;99.90;;;;;;5033391;28;20451;-61
2023/01/06 02:39:38;;;;;;;10.40;6.38;;;9.10;99.90;;;;;;5033781;28;20421;-60
2023/01/06 02:42:18;;;;;;;10.93;6.20;;;9.10;99.90;;;;;;5033566;28;20410;-60
2023/01/06 02:44:55;;;;;;;10.25;6.55;;;9.10;99.90;;;;;;5033169;28;20466;-61
2023/01/06 02:47:32;;;;;;;10.57;5.90;;;9.10;99.90;;;;;;5033289;28;20422;-60
2023/01/06 02:50:09;;;;;;;9.40;6.10;;;9.10;99.90;;;;;;5032224;28;20419;-61
2023/01/06 02:52:42;;;;;;;9.05;5.60;;;9.10;99.90;;;;;;5033795;28;20414;-61
2023/01/06 02:55:13;;;;;;;9.77;5.80;;;9.20;99.90;;;;;;5033847;28;20415;-61
2023/01/06 02:57:45;;;;;;;7.15;5.22;;;9.20;99.90;;;;;;5032946;28;20919;-61
2023/01/06 03:00:17;;;;;;;8.80;5.85;;;9.20;99.90;;;;;;5033057;28;20429;-61
2023/01/06 03:02:50;;;;;;;8.27;5.80;;;9.20;99.90;;;;;;5033404;28;20427;-60
2023/01/06 03:05:17;;;;;;;7.53;4.60;;;9.30;99.90;;;;;;5033149;28;20422;-60
2023/01/06 03:07:47;;;;;;;6.18;5.10;;;9.20;99.90;;;;;;5033041;28;20426;-61
2023/01/06 03:10:17;;;;;;;7.57;5.00;;;9.20;99.90;;;;;;5032757;28;20879;-61
2023/01/06 03:12:49;;;;;;;8.20;4.82;;;9.30;99.90;;;;;;5033040;28;20430;-61
2023/01/06 03:15:16;;;;;;;7.82;4.95;;;9.30;99.90;;;;;;5032929;28;20415;-61
2023/01/06 03:17:43;;;;;;;5.63;4.25;;;9.30;99.90;;;;;;5032960;28;20439;-62
2023/01/06 03:20:13;;;;;;;7.72;4.53;;;9.30;99.90;;;;;;5032875;28;20422;-61
2023/01/06 03:22:42;;;;;;;7.72;4.32;;;9.30;99.90;;;;;;5032693;28;20419;-61
2023/01/06 03:25:10;;;;;;;7.05;3.95;;;9.40;99.90;;;;;;5032592;28;20419;-62
2023/01/06 03:27:37;;;;;;;7.00;4.30;;;9.40;99.90;;;;;;5032599;28;20415;-60
2023/01/06 03:30:08;;;;;;;7.07;4.00;;;9.40;99.90;;;;;;5032996;28;20500;-60
2023/01/06 03:32:44;;;;;;;7.15;4.20;;;9.40;99.90;;;;;;5032321;28;20430;-61
2023/01/06 03:35:22;;;;;;;5.10;3.90;;;9.50;99.90;;;;;;5032483;28;20466;-62
2023/01/06 03:37:55;;;;;;;7.07;4.00;;;9.50;99.90;;;;;;5032771;28;20434;-62
2023/01/06 03:40:30;;;;;;;5.25;3.90;;;9.50;99.90;;;;;;5032575;28;20426;-62
2023/01/06 03:43:10;;;;;;;6.13;3.58;;;9.50;99.90;;;;;;5032500;28;20411;-62
2023/01/06 03:45:50;;;;;;;7.13;4.10;;;9.50;99.90;;;;;;5032224;28;20441;-62
2023/01/06 03:48:29;;;;;;;7.60;3.80;;;9.50;99.90;;;;;;5032294;28;20415;-62
2023/01/06 03:51:05;;;;;;;7.82;3.70;;;9.50;99.90;;;;;;5032065;28;20910;-63
2023/01/06 03:53:38;;;;;;;4.68;3.60;;;9.50;99.90;;;;;;5031955;28;20799;-62
2023/01/06 03:56:15;;;;;;;7.65;3.67;;;9.60;99.90;;;;;;5032168;28;20415;-61
2023/01/06 03:58:46;;;;;;;7.13;4.05;;;9.50;99.90;;;;;;5031835;28;20760;-63
2023/01/06 04:01:14;;;;;;;4.70;3.40;;;9.50;99.90;;;;;;5031869;28;20414;-62
2023/01/06 04:03:44;;;;;;;4.35;3.50;;;9.50;99.90;;;;;;5031687;28;20913;-61
2023/01/06 04:06:12;;;;;;;6.45;3.75;;;9.60;99.90;;;;;;5032054;28;20486;-62
2023/01/06 04:10:57;;;;;;;5.80;3.60;;;9.60;99.90;;;;;;5090173;28;20353;-61
2023/01/06 04:13:22;;;;;;;7.68;4.00;;;9.60;99.90;;;;;;5089358;28;20907;-62
2023/01/06 04:15:49;;;;;;;5.23;3.73;;;9.60;99.90;;;;;;5089465;28;20411;-62
2023/01/06 04:18:16;;;;;;;4.57;3.40;;;9.60;99.90;;;;;;5090537;28;20913;-62
2023/01/06 04:20:43;;;;;;;4.63;3.20;;;9.60;99.90;;;;;;5090712;28;20419;-64
2023/01/06 04:23:09;;;;;;;6.88;3.60;;;9.70;99.90;;;;;;5091427;28;20422;-63
2023/01/06 04:25:36;;;;;;;5.72;3.20;;;9.70;99.90;;;;;;5089830;28;20410;-63
2023/01/06 04:28:06;;;;;;;4.40;3.30;;;9.70;99.90;;;;;;5094327;28;20407;-63
2023/01/06 04:30:32;;;;;;;6.32;3.58;;;9.70;99.90;;;;;;5090825;28;20427;-62
2023/01/06 04:33:01;;;;;;;4.55;3.55;;;9.70;99.90;;;;;;5089276;28;20410;-63
2023/01/06 04:35:28;;;;;;;6.32;3.50;;;9.70;99.90;;;;;;5089522;28;20411;-62
2023/01/06 04:37:55;;;;;;;4.93;3.70;;;9.70;99.90;;;;;;5090677;28;20486;-62
2023/01/06 04:40:22;;;;;;;4.85;3.40;;;9.70;99.90;;;;;;5091768;28;20413;-63
2023/01/06 04:43:06;;;;;;;5.00;3.63;;;9.80;99.90;;;;;;5089209;28;20420;-62
2023/01/06 04:45:36;;;;;;;6.17;3.43;;;9.70;99.90;;;;;;5089324;28;20456;-63
2023/01/06 04:48:02;;;;;;;7.53;3.88;;;9.80;99.90;;;;;;5089177;28;20418;-62
2023/01/06 04:50:29;;;;;;;4.97;3.63;;;9.80;99.90;;;;;;5088740;28;20422;-63
2023/01/06 04:52:56;;;;;;;5.10;3.60;;;9.80;99.90;;;;;;5088986;28;20493;-63
2023/01/06 04:55:23;;;;;;;5.03;3.67;;;9.80;99.90;;;;;;5089012;28;20419;-62
2023/01/06 04:57:50;;;;;;;6.85;4.20;;;9.80;99.90;;;;;;5088887;28;20895;-62
2023/01/06 05:00:18;;;;;;;5.50;4.10;;;9.80;99.90;;;;;;5088474;28;20421;-63
2023/01/06 05:02:46;;;;;;;5.70;3.90;;;9.80;99.90;;;;;;5088624;28;20423;-63
2023/01/06 05:05:13;;;;;;;4.60;3.50;;;9.90;99.90;;;;;;5088910;28;20415;-63
2023/01/06 05:07:40;;;;;;;3.92;3.30;;;9.90;99.90;;;;;;5088823;28;20419;-63
2023/01/06 05:10:08;;;;;;;4.40;3.50;;;9.90;99.90;;;;;;5102193;28;20441;-63
2023/01/06 05:12:36;;;;;;;3.90;3.15;;;9.90;99.90;;;;;;5108919;28;20414;-62
2023/01/06 05:15:03;;;;;;;4.75;3.25;;;9.90;99.90;;;;;;5113987;28;20441;-63
2023/01/06 05:17:30;;;;;;;5.82;3.47;;;9.90;99.90;;;;;;5107255;28;20415;-63
2023/01/06 05:19:58;;;;;;;5.55;3.17;;;9.90;99.90;;;;;;5091355;28;20801;-62
2023/01/06 05:22:25;;;;;;;4.40;3.00;;;9.90;99.90;;;;;;5082730;28;20437;-63
2023/01/06 05:24:52;;;;;;;4.45;3.05;;;9.90;99.90;;;;;;5077777;28;20461;-64
2023/01/06 05:27:19;;;;;;;5.10;3.20;;;10.00;99.90;;;;;;5079291;28;20418;-64
2023/01/06 05:29:46;;;;;;;5.20;3.20;;;9.90;99.90;;;;;;5082242;28;20439;-62
2023/01/06 05:32:13;;;;;;;3.90;2.50;;;9.90;99.90;;;;;;5084306;28;20936;-63
2023/01/06 05:34:39;;;;;;;5.07;2.90;;;9.90;99.90;;;;;;5074955;28;20796;-63
2023/01/06 05:37:07;;;;;;;4.28;2.53;;;9.90;99.90;;;;;;5075108;28;20423;-63
2023/01/06 05:39:34;;;;;;;4.80;2.53;;;9.90;99.90;;;;;;5082530;28;20421;-63
2023/01/06 05:42:01;;;;;;;4.90;2.33;;;9.90;99.90;;;;;;5087114;28;20942;-64
2023/01/06 05:44:28;;;;;;;5.40;2.70;;;10.00;99.90;;;;;;5074768;28;20866;-62
2023/01/06 05:46:54;;;;;;;4.30;2.45;;;10.00;99.90;;;;;;5081356;28;20429;-63
2023/01/06 05:49:22;;;;;;;3.97;2.30;;;10.00;99.90;;;;;;5084129;28;20437;-62
2023/01/06 05:51:48;;;;;;;3.30;2.30;;;10.00;99.90;;;;;;5095204;28;20432;-62
2023/01/06 05:54:17;;;;;;;2.90;2.10;;;10.00;99.90;;;;;;5082440;28;20503;-64
2023/01/06 05:56:44;;;;;;;2.33;1.80;;;10.00;99.90;;;;;;5074258;28;20411;-63
2023/01/06 05:59:10;;;;;;;3.25;1.80;;;10.00;99.90;;;;;;5083766;28;20913;-62
2023/01/06 06:01:37;;;;;;;4.25;1.88;;;10.00;99.90;;;;;;5089091;28;20520;-63
2023/01/06 06:04:04;;;;;;;3.85;2.03;;;10.00;99.90;;;;;;5077346;28;20418;-63
2023/01/06 06:06:31;;;;;;;3.42;1.60;;;10.00;99.90;;;;;;5075668;28;20428;-60
2023/01/06 06:08:58;;;;;;;2.17;1.60;;;10.00;99.90;;;;;;5075329;28;20415;-63
2023/01/06 06:11:26;;;;;;;2.00;1.60;;;10.00;99.90;;;;;;5076812;28;20427;-60
2023/01/06 06:13:54;;;;;;;2.50;1.40;;;10.00;99.90;;;;;;5086008;28;20432;-61
2023/01/06 06:16:23;;;;;;;2.55;1.40;;;10.00;99.90;;;;;;5081019;28;20433;-63
2023/01/06 06:18:51;;;;;;;2.80;1.70;;;10.00;99.90;;;;;;5089898;28;20431;-63
2023/01/06 06:21:19;;;;;;;3.10;1.40;;;10.10;99.90;;;;;;5081222;28;20515;-63
2023/01/06 06:23:46;;;;;;;2.80;1.50;;;10.10;99.90;;;;;;5080008;28;20935;-63
2023/01/06 06:26:13;;;;;;;4.30;1.40;;;10.10;99.90;;;;;;5077552;28;20440;-63
2023/01/06 06:28:41;;;;;;;2.10;1.20;;;10.10;99.90;;;;;;5078612;28;20439;-62
2023/01/06 06:31:10;;;;;;;3.30;1.48;;;10.10;99.90;;;;;;5078028;28;20431;-62
2023/01/06 06:33:38;;;;;;;2.37;1.50;;;10.10;99.90;;;;;;5078179;28;20430;-62
2023/01/06 06:36:08;;;;;;;1.73;1.00;;;10.10;99.90;;;;;;5077891;28;20506;-62
2023/01/06 06:38:35;;;;;;;2.35;1.10;;;10.10;99.90;;;;;;5079222;28;20812;-63
2023/01/06 06:41:02;;;;;;;2.60;1.13;;;10.10;99.90;;;;;;5079769;28;20472;-63
2023/01/06 06:43:29;;;;;;;3.20;1.30;;;10.10;99.90;;;;;;5079102;28;20915;-63
2023/01/06 06:45:57;;;;;;;2.13;1.10;;;10.10;99.90;;;;;;5085149;28;20435;-63
2023/01/06 06:48:24;;;;;;;2.30;1.40;;;10.10;99.90;;;;;;5078969;28;20490;-62
2023/01/06 06:50:57;;;;;;;2.33;1.30;;;10.00;99.90;;;;;;5097571;28;20426;-63
2023/01/06 06:53:23;;;;;;;2.10;1.17;;;10.10;99.90;;;;;;5084666;28;20826;-62
2023/01/06 06:55:50;;;;;;;2.20;1.20;;;10.10;99.90;;;;;;5077544;28;20423;-62
2023/01/06 06:58:17;;;;;;;2.30;1.00;;;10.10;99.90;;;;;;5079545;28;20923;-63
2023/01/06 07:00:44;;;;;;;1.83;0.95;;;10.10;99.90;;;;;;5078789;28;20434;-63
2023/01/06 07:03:12;;;;;;;2.70;1.30;;;10.10;99.90;;;;;;5078491;28;20990;-62
2023/01/06 07:05:39;;;;;;;2.20;1.40;;;10.10;99.90;;;;;;5079971;28;20923;-62
2023/01/06 07:08:07;;;;;;;2.22;1.00;;;10.20;99.90;;;;;;5086461;28;20520;-63
2023/01/06 07:10:34;;;;;;;4.85;1.20;;;10.20;99.90;;;;;;5083914;28;20530;-62
2023/01/06 07:13:00;;;;;;;2.00;1.17;;;10.20;99.90;;;;;;5075939;28;20438;-62
2023/01/06 07:15:27;;;;;;;2.60;1.40;;;10.20;99.90;;;;;;5092491;28;20429;-63
2023/01/06 07:17:54;;;;;;;3.80;1.30;;;10.20;99.90;;;;;;5086107;28;20518;-62
2023/01/06 07:20:22;;;;;;;2.20;1.30;;;10.20;99.90;;;;;;5092713;28;20417;-62
2023/01/06 07:22:49;;;;;;;2.20;1.10;;;10.20;99.90;;;;;;5088508;28;20427;-62
2023/01/06 07:25:16;;;;;;;3.72;1.20;;;10.20;99.90;;;;;;5085113;28;20416;-61
2023/01/06 07:27:42;;;;;;;2.93;1.10;;;10.20;99.90;;;;;;5075965;28;20423;-62
2023/01/06 07:30:14;;;;;;;2.15;1.20;;;10.30;99.90;;;;;;5093850;28;20426;-62
2023/01/06 07:32:41;;;;;;;3.78;1.45;;;10.30;99.90;;;;;;5097107;28;20564;-62
2023/01/06 07:35:09;;;;;;;3.25;1.13;;;10.30;99.90;;;;;;5098026;28;20421;-62
2023/01/06 07:37:37;;;;;;;2.63;1.27;;;10.30;99.90;;;;;;5093837;28;20420;-62
2023/01/06 07:40:05;;;;;;;2.00;1.30;;;10.30;99.90;;;;;;5093369;28;20460;-62
2023/01/06 07:42:31;;;;;;;1.92;1.10;;;10.30;99.90;;;;;;5092549;28;20894;-62
2023/01/06 07:44:58;;;;;;;3.05;1.27;;;10.30;99.90;;;;;;5092859;28;20917;-61
2023/01/06 07:47:25;;;;;;;2.10;1.10;;;10.30;99.90;;;;;;5093661;28;20413;-63
2023/01/06 07:49:52;;;;;;;2.13;1.20;;;10.30;99.90;;;;;;5093611;28;20444;-62
2023/01/06 07:52:19;;;;;;;2.63;1.40;;;10.30;99.90;;;;;;5093786;28;20418;-63
2023/01/06 07:54:47;;;;;;;1.85;1.10;;;10.40;99.90;;;;;;5093879;28;20504;-62
2023/01/06 07:57:13;;;;;;;2.95;1.52;;;10.40;99.90;;;;;;5094595;28;20420;-64
2023/01/06 07:59:40;;;;;;;2.42;1.50;;;10.40;99.90;;;;;;5094421;28;20422;-63
2023/01/06 08:02:07;;;;;;;4.60;1.30;;;10.40;99.90;;;;;;5098950;28;20456;-63
2023/01/06 08:04:34;;;;;;;2.40;1.08;;;10.40;99.90;;;;;;5098643;28;20420;-63
2023/01/06 08:07:01;;;;;;;4.10;1.20;;;10.40;99.90;;;;;;5099284;28;20410;-62
2023/01/06 08:09:28;;;;;;;2.83;1.38;;;10.40;99.90;;;;;;5095767;28;20414;-61
2023/01/06 08:11:56;;;;;;;2.80;1.20;;;10.40;99.90;;;;;;5095004;28;20790;-63
2023/01/06 08:14:23;;;;;;;2.65;1.30;;;10.50;99.90;;;;;;5095449;28;20833;-63
2023/01/06 08:16:50;;;;;;;4.07;1.30;;;10.50;99.90;;;;;;5090697;28;20847;-61
2023/01/06 08:19:17;;;;;;;2.30;1.10;;;10.50;99.90;;;;;;5080800;28;20898;-63
2023/01/06 08:21:43;;;;;;;3.17;1.30;;;10.50;99.90;;;;;;5094900;28;20416;-61
2023/01/06 08:24:10;;;;;;;2.00;1.00;;;10.50;99.90;;;;;;5083016;28;20415;-62
2023/01/06 08:26:37;;;;;;;2.80;1.30;;;10.50;99.90;;;;;;5074232;28;20431;-62
2023/01/06 08:29:05;;;;;;;2.50;1.20;;;10.50;99.90;;;;;;5072375;28;20807;-62
2023/01/06 08:31:32;;;;;;;1.83;1.30;;;10.50;99.90;;;;;;5086008;28;20506;-63
2023/01/06 08:33:59;;;;;;;1.95;1.42;;;10.60;99.90;;;;;;5087480;28;21018;-62
2023/01/06 08:36:26;;;;;;;2.47;1.58;;;10.60;99.90;;;;;;5086657;28;20417;-63
2023/01/06 08:38:53;;;;;;;2.35;1.00;;;10.60;99.90;;;;;;5087806;28;20453;-63
2023/01/06 08:41:20;;;;;;;4.15;1.50;;;10.70;99.90;;;;;;5089153;28;20402;-62
2023/01/06 08:43:47;;;;;;;1.83;1.20;;;10.70;99.90;;;;;;5092796;28;20429;-64
2023/01/06 08:46:18;;;;;;;3.25;1.90;;;10.70;99.90;;;;;;5092917;28;20414;-62
2023/01/06 08:48:45;;;;;;;3.55;1.60;;;10.80;99.90;;;;;;5093479;28;20418;-63
2023/01/06 08:51:14;;;;;;;2.97;1.30;;;10.80;99.90;;;;;;5093585;28;20421;-63
2023/01/06 08:53:42;;;;;;;2.45;1.70;;;10.90;99.90;;;;;;5096205;28;20421;-65
2023/01/06 08:56:12;;;;;;;2.42;1.30;;;10.90;99.90;;;;;;5097602;28;20445;-63
2023/01/06 08:58:39;;;;;;;2.53;1.20;;;10.90;99.90;;;;;;5098093;28;20449;-63
2023/01/06 09:01:06;;;;;;;3.25;1.50;;;10.90;99.90;;;;;;5097074;28;20421;-63
2023/01/06 09:03:34;;;;;;;2.05;1.38;;;11.00;99.90;;;;;;5100141;28;20410;-62
2023/01/06 09:06:01;;;;;;;2.40;1.30;;;11.00;99.90;;;;;;5097943;28;20504;-64
2023/01/06 09:08:27;;;;;;;1.27;1.00;;;11.10;99.90;;;;;;5097072;28;20938;-63
2023/01/06 09:10:54;;;;;;;3.90;1.30;;;11.10;99.90;;;;;;5096835;28;20790;-63
2023/01/06 09:13:21;;;;;;;1.50;1.02;;;11.10;99.90;;;;;;5096419;28;20417;-63
2023/01/06 09:15:48;;;;;;;2.25;1.30;;;11.10;99.90;;;;;;5096056;28;20801;-64
2023/01/06 09:18:14;;;;;;;3.88;1.10;;;11.10;99.90;;;;;;5096042;28;20409;-63
2023/01/06 09:20:43;;;;;;;3.08;1.20;;;11.00;99.90;;;;;;5099099;28;20469;-63
2023/01/06 09:23:09;;;;;;;2.42;1.35;;;11.00;99.90;;;;;;5096682;28;20414;-63
2023/01/06 09:25:36;;;;;;;2.80;1.50;;;10.90;99.90;;;;;;5098482;28;20414;-64
2023/01/06 09:28:03;;;;;;;2.00;1.30;;;10.90;99.90;;;;;;5099149;28;20920;-65
2023/01/06 09:30:32;;;;;;;1.97;1.03;;;10.90;99.90;;;;;;5102410;28;20577;-63
2023/01/06 09:32:59;;;;;;;3.17;1.30;;;11.00;99.90;;;;;;5105661;28;20886;-64
2023/01/06 09:35:26;;;;;;;2.40;1.30;;;11.00;99.90;;;;;;5106223;28;20419;-63
2023/01/06 09:37:54;;;;;;;2.92;1.35;;;11.00;99.90;;;;;;5107110;28;20410;-65
2023/01/06 09:40:29;;;;;;;2.45;1.27;;;11.00;99.90;;;;;;5108229;28;20418;-63
2023/01/06 09:43:05;;;;;;;2.08;1.20;;;10.90;99.90;;;;;;5106877;28;20414;-65
2023/01/06 09:45:38;;;;;;;2.15;1.10;;;10.90;99.90;;;;;;5108227;28;20876;-65
2023/01/06 09:48:08;;;;;;;2.80;1.30;;;10.80;99.90;;;;;;5108819;28;20418;-64
2023/01/06 09:50:40;;;;;;;2.40;1.30;;;10.80;99.90;;;;;;5109328;28;20453;-65
2023/01/06 09:53:13;;;;;;;2.78;1.10;;;10.80;99.90;;;;;;5106638;28;20410;-65
2023/01/06 09:55:44;;;;;;;1.40;1.00;;;10.80;99.90;;;;;;5103923;28;20409;-67
2023/01/06 09:58:13;;;;;;;2.35;1.20;;;10.80;99.90;;;;;;5105952;28;20886;-66
2023/01/06 10:00:44;;;;;;;1.90;1.00;;;10.90;99.90;;;;;;5106638;28;20406;-65
2023/01/06 10:03:14;;;;;;;2.45;1.10;;;10.90;99.90;;;;;;5107671;28;20402;-65
2023/01/06 10:05:50;;;;;;;1.50;1.23;;;10.90;99.90;;;;;;5106372;28;20414;-64
2023/01/06 10:08:25;;;;;;;3.67;1.33;;;10.80;99.90;;;;;;5104271;28;20786;-64
2023/01/06 10:11:01;;;;;;;2.95;1.20;;;10.80;99.90;;;;;;5102756;28;20932;-65
2023/01/06 10:13:46;;;;;;;3.28;1.80;;;10.80;99.90;;;;;;5105235;28;20782;-65
2023/01/06 10:16:22;;;;;;;2.30;1.10;;;10.80;99.90;;;;;;5103497;28;20410;-64
2023/01/06 10:18:55;;;;;;;1.80;1.30;;;10.70;99.90;;;;;;5101627;28;20419;-65
2023/01/06 10:21:29;;;;;;;2.45;1.20;;;10.60;99.90;;;;;;5101342;28;20406;-65
2023/01/06 10:24:16;;;;;;;1.55;1.40;;;10.60;99.90;;;;;;5104136;22;20795;-64
2023/01/06 10:26:44;;;;;;;2.42;1.83;;;10.70;99.90;;;;;;5074100;28;20505;-65
2023/01/06 10:29:16;;;;;;;2.80;1.80;;;10.70;99.90;;;;;;5073310;28;20779;-66
2023/01/06 10:31:45;;;;;;;1.60;1.50;;;10.80;99.90;;;;;;5073578;28;20533;-65
2023/01/06 10:34:19;;;;;;;2.53;1.38;;;10.80;99.90;;;;;;5073508;28;20411;-64
2023/01/06 10:36:52;;;;;;;2.38;1.40;;;10.80;99.90;;;;;;5074149;28;20422;-64
2023/01/06 10:39:23;;;;;;;2.45;1.70;;;10.80;99.90;;;;;;5074475;28;20477;-66
2023/01/06 10:42:54;;;;;;;2.80;1.73;;;10.80;99.90;;;;;;5076418;28;20407;-65
2023/01/06 10:44:43;;;;;;;2.72;1.60;;;10.80;99.90;;;;;;5075905;28;20490;-64
2023/01/06 10:47:17;;;;;;;1.73;1.50;;;10.80;99.90;;;;;;5073756;28;20422;-64
2023/01/06 10:49:44;;;;;;;2.10;1.67;;;10.80;99.90;;;;;;5073063;28;20423;-65
2023/01/06 10:52:12;;;;;;;1.90;1.80;;;10.80;99.90;;;;;;5073088;28;20434;-65
2023/01/06 10:54:42;;;;;;;3.13;1.90;;;10.70;99.90;;;;;;5073846;28;20458;-64
2023/01/06 10:57:14;;;;;;;1.90;1.80;;;10.80;99.90;;;;;;5074035;28;20415;-65
2023/01/06 11:00:15;;;;;;;2.00;1.80;;;10.80;99.90;;;;;;5073143;28;20598;-66
2023/01/06 11:02:44;;;;;;;2.22;1.70;;;10.80;99.90;;;;;;5073890;28;20419;-65
2023/01/06 11:05:19;;;;;;;2.50;1.70;;;10.80;99.90;;;;;;5072951;28;21002;-65
2023/01/06 11:07:55;;;;;;;2.72;1.70;;;10.80;99.90;;;;;;5073464;28;20416;-64
2023/01/06 11:10:31;;;;;;;2.80;2.10;;;10.80;99.90;;;;;;5072716;28;20944;-64
2023/01/06 11:13:00;;;;;;;2.40;1.80;;;10.70;99.90;;;;;;5072418;28;20423;-62
2023/01/06 11:15:35;;;;;;;2.20;2.00;;;10.70;99.90;;;;;;5072648;28;20481;-63
2023/01/06 11:18:03;;;;;;;2.60;2.20;;;10.70;99.90;;;;;;5072479;28;20423;-62
2023/01/06 11:20:33;;;;;;;2.92;2.50;;;10.70;99.90;;;;;;5072250;28;20939;-64
2023/01/06 11:23:14;;;;;;;2.40;2.20;;;10.70;99.90;;;;;;5071824;28;20439;-64
2023/01/06 11:25:42;;;;;;;2.40;2.10;;;10.70;99.90;;;;;;5072477;28;20415;-64
2023/01/06 11:28:16;;;;;;;2.70;2.50;;;10.80;99.90;;;;;;5073227;28;20445;-64
2023/01/06 11:30:49;;;;;;;3.13;2.30;;;10.80;99.90;;;;;;5073003;28;20915;-62
2023/01/06 11:33:18;;;;;;;3.30;2.50;;;10.90;99.90;;;;;;5072723;28;20418;-63
2023/01/06 11:35:46;;;;;;;2.80;2.60;;;11.00;99.90;;;;;;5071827;28;20423;-64
2023/01/06 11:38:15;;;;;;;2.70;2.50;;;11.10;99.90;;;;;;5072337;28;20412;-62
2023/01/06 11:40:45;;;;;;;2.40;2.20;;;11.20;99.90;;;;;;5071978;28;20411;-64
2023/01/06 11:43:15;;;;;;;2.40;2.20;;;11.30;99.90;;;;;;5072600;28;20495;-63
2023/01/06 11:45:45;;;;;;;2.30;2.10;;;11.40;99.90;;;;;;5072112;28;20416;-62
2023/01/06 11:48:16;;;;;;;2.10;1.80;;;11.40;99.90;;;;;;5072329;28;20419;-63
2023/01/06 11:50:51;;;;;;;1.90;1.70;;;11.50;99.90;;;;;;5072437;28;20411;-63
2023/01/06 11:53:20;;;;;;;2.10;1.90;;;11.50;99.90;;;;;;5072877;28;20408;-64
2023/01/06 11:55:58;;;;;;;2.10;1.80;;;11.50;99.90;;;;;;5072111;28;20419;-63
2023/01/06 11:58:40;;;;;;;1.80;1.70;;;11.50;99.90;;;;;;5071841;28;20418;-62
2023/01/06 12:01:11;;;;;;;1.80;1.70;;;11.50;99.90;;;;;;5072287;28;20416;-63
2023/01/06 12:03:41;;;;;;;1.70;1.60;;;11.60;99.90;;;;;;5072415;28;20411;-63
2023/01/06 12:06:20;;;;;;;2.10;1.95;;;11.60;99.90;;;;;;5072611;28;20418;-64
2023/01/06 12:08:53;;;;;;;1.60;1.50;;;11.70;99.90;;;;;;5072697;28;20794;-63
2023/01/06 12:11:27;;;;;;;2.40;1.80;;;11.70;99.90;;;;;;5075235;28;20431;-63
2023/01/06 12:13:54;;;;;;;2.20;1.70;;;11.70;99.90;;;;;;5077589;28;20411;-64
2023/01/06 12:16:28;;;;;;;2.17;2.00;;;11.60;99.90;;;;;;5072000;28;20430;-63
2023/01/06 12:18:55;;;;;;;1.85;1.70;;;11.60;99.90;;;;;;5071838;28;20427;-61
2023/01/06 12:21:28;;;;;;;3.70;2.03;;;11.50;99.90;;;;;;5072575;28;20404;-64
2023/01/06 12:23:58;;;;;;;2.90;2.10;;;11.50;99.90;;;;;;5070910;28;20419;-63
2023/01/06 12:26:28;;;;;;;2.80;1.90;;;11.50;99.90;;;;;;5071955;28;20441;-62
2023/01/06 12:28:57;;;;;;;2.30;1.90;;;11.40;99.90;;;;;;5071676;28;20518;-63
2023/01/06 12:31:28;;;;;;;2.30;1.90;;;11.40;99.90;;;;;;5072960;28;20941;-63
2023/01/06 12:34:01;;;;;;;2.15;1.90;;;11.30;99.90;;;;;;5075366;28;20415;-63
2023/01/06 12:36:35;;;;;;;2.10;2.00;;;11.30;99.90;;;;;;5075775;28;20434;-63
2023/01/06 12:39:04;;;;;;;2.30;2.00;;;11.20;99.90;;;;;;5075609;28;20404;-63
2023/01/06 12:41:37;;;;;;;2.28;1.90;;;11.20;99.90;;;;;;5075689;28;20775;-63
2023/01/06 12:44:14;;;;;;;2.20;2.00;;;11.10;99.90;;;;;;5075146;28;20844;-63
2023/01/06 12:46:50;;;;;;;2.50;2.20;;;11.10;99.90;;;;;;5075363;28;20933;-64
2023/01/06 12:49:21;;;;;;;2.40;2.20;;;11.10;99.90;;;;;;5075235;28;20423;-61
2023/01/06 12:51:52;;;;;;;2.67;2.27;;;11.00;99.90;;;;;;5075434;28;20492;-63
2023/01/06 12:54:26;;;;;;;3.63;2.20;;;11.00;99.90;;;;;;5075205;28;20926;-63
2023/01/06 12:57:10;;;;;;;2.15;1.95;;;11.00;99.90;;;;;;5075622;28;20415;-61
2023/01/06 12:59:50;;;;;;;3.00;2.10;;;11.00;99.90;;;;;;5075700;28;20994;-63
2023/01/06 13:02:31;;;;;;;2.42;2.10;;;11.00;99.90;;;;;;5075248;28;20761;-63
2023/01/06 13:05:21;;;;;;;2.33;2.03;;;11.00;99.90;;;;;;5075313;28;20808;-64